Weather observations for the past three days for
Coeur d'Alene Airport - Pappy Boyington Field
Imperial (Metric)
Date Time (pdt) Wind (mph) Vis. (mi.) Weather Sky Cond. Temperature (ºF) Relative Humidity Wind Chill (°F) Heat Index (°F) Pressure Precipitation (in)
Air Dwpt 6 hour altimeter (in) sea level (mb) 1 hr 3 hr 6 hr
Max. Min.
07 01:56 S 6 10.00 Fair CLR 55.9 39.9 55% 29.89 1012.5
07 00:56 S 3 10.00 Fair CLR 59 42.1 54% 29.87 1012.0
06 23:56 S 8 10.00 Fair CLR 61 43 52% 29.85 1011.1
06 22:56 S 9 10.00 Fair CLR 64 46.9 73.9 61 54% 29.84 1010.8
06 21:56 SW 3 10.00 Fair CLR 64.9 46.9 52% 29.84 1011.1
06 20:56 SE 7 10.00 Fair CLR 68 48 49% 29.84 1011.1
06 19:56 S 9 10.00 Fair CLR 70 48.9 47% 29.84 1011.0
06 18:56 S 8 10.00 Fair CLR 72 46 40% 29.84 1011.3
06 17:56 SW 12 G 20 10.00 Fair CLR 73 45 37% 29.86 1011.9
06 16:56 SW 9 10.00 Fair CLR 73.9 46.9 77 66 38% 29.86 1012.0
06 15:56 SW 15 10.00 A Few Clouds FEW060 73.9 48.9 41% 29.88 1012.7
06 14:56 SW 13 10.00 Fair CLR 75 50 42% 78 29.89 1013.1
06 13:56 W 10 10.00 Fair CLR 75 48.9 40% 77 29.91 1013.5
06 12:56 Vrbl 5 10.00 Fair CLR 72 45 38% 29.93 1014.2
06 11:56 NW 8 10.00 Fair CLR 69.1 43 39% 29.95 1015.2
06 10:56 Vrbl 5 10.00 Fair CLR 66.9 39 66.9 46 36% 29.95 1015.2
06 09:56 Vrbl 6 10.00 Fair CLR 63 37.9 40% 29.97 1015.8
06 08:56 Vrbl 3 10.00 Fair CLR 57.9 36 44% 29.98 1016.2
06 07:56 NE 9 10.00 Fair CLR 53.1 37 55% 29.97 1016.1
06 06:56 NE 6 10.00 Fair CLR 51.1 34 52% 29.98 1016.1
06 05:56 E 6 10.00 Fair CLR 46.9 35.1 63% 45 29.97 1015.9
06 04:56 E 6 10.00 Fair CLR 46.9 39 55.9 43 74% 45 29.96 1015.6
06 03:56 E 3 10.00 Fair CLR 44.1 37 76% 29.96 1015.7
06 02:56 E 5 10.00 Fair CLR 45 37.9 77% 43 29.96 1015.6
06 01:56 Calm 10.00 Fair CLR 48.9 37 64% 29.95 1015.4
06 00:56 Vrbl 5 10.00 Fair CLR 48.9 37.9 66% 48 29.94 1015.1
05 23:56 NE 3 10.00 Fair CLR 48.9 39 69% 29.94 1014.8
05 22:56 E 5 10.00 Fair CLR 54 41 72 53.1 62% 29.92 1014.1
05 21:56 E 3 10.00 Fair CLR 57 41 55% 29.9 1013.6
05 20:56 E 5 10.00 Fair CLR 57.9 39 50% 29.89 1013.2
05 19:56 N 3 10.00 Fair CLR 64.9 36 34% 29.88 1012.7
05 18:56 NE 3 10.00 Fair CLR 70 32 25% 29.88 1012.7
05 17:56 E 10 10.00 Fair CLR 71.1 33.1 25% 29.88 1012.8
05 16:56 Vrbl 3 10.00 Fair CLR 71.1 30.9 72 64.9 23% 29.9 1013.4
05 15:56 NE 9 10.00 Fair CLR 71.1 32 24% 29.91 1013.7
05 14:56 N 8 G 18 10.00 Fair CLR 71.1 32 24% 29.93 1014.1
05 13:56 N 12 10.00 Fair CLR 70 34 27% 29.94 1014.6
05 12:56 Vrbl 3 10.00 Fair CLR 69.1 33.1 26% 29.94 1014.6
05 11:56 NE 5 10.00 Fair CLR 68 34 28% 29.95 1014.8
05 10:56 N 8 10.00 Fair CLR 64.9 34 64.9 48 32% 29.95 1015.0
05 09:56 N 9 G 16 10.00 Fair CLR 63 34 34% 29.96 1015.3
05 08:56 N 12 10.00 Fair CLR 60.1 36 41% 29.96 1015.5
05 07:56 N 12 10.00 Fair CLR 55.9 36 47% 29.96 1015.4
05 06:56 N 10 10.00 Fair CLR 52 35.1 53% 29.95 1015.0
05 05:56 N 10 10.00 Fair CLR 48 35.1 61% 44 29.93 1014.3
05 04:56 N 10 10.00 Fair CLR 48.9 36 61 48.9 61% 45 29.91 1013.7
05 03:56 N 9 10.00 Fair CLR 50 36 59% 47 29.91 1013.4
05 02:56 N 10 10.00 Fair CLR 52 37 57% 29.9 1013.0
05 01:56 N 8 10.00 Fair CLR 52 37.9 59% 29.88 1012.4
05 00:56 N 8 10.00 Fair CLR 54 39 57% 29.87 1012.1
04 23:56 N 10 10.00 Fair CLR 55.9 39 53% 29.85 1011.4
04 22:56 N 6 10.00 Fair CLR 61 37.9 75.9 59 43% 29.84 1011.0
04 21:56 N 7 10.00 Fair CLR 60.1 39 46% 29.83 1010.6
04 20:56 N 6 10.00 Fair CLR 63 39 41% 29.81 1009.9
04 19:56 N 8 10.00 Fair CLR 66.9 37.9 35% 29.79 1009.3
04 18:56 N 14 10.00 Fair CLR 72 36 27% 29.78 1009.2
04 17:56 N 12 10.00 Fair CLR 73.9 35.1 24% 29.79 1009.4
04 16:56 NE 10 10.00 Fair CLR 75.9 36 75.9 69.1 23% 77 29.79 1009.5
04 15:56 N 12 10.00 Fair CLR 75.9 37.9 25% 77 29.8 1009.5
04 14:56 N 10 G 16 10.00 Fair CLR 75 37.9 26% 77 29.8 1009.6
04 13:56 N 12 10.00 Fair CLR 75 39.9 28% 77 29.81 1010.0
04 12:56 NE 12 10.00 Fair CLR 73 39.9 30% 29.81 1010.1
04 11:56 N 12 10.00 Fair CLR 71.1 41 34% 29.82 1010.3
04 10:56 N 14 10.00 Fair CLR 69.1 41 70 46.9 36% 29.83 1010.4
04 09:56 NE 14 10.00 Fair CLR 66 41 40% 29.83 1010.5
04 08:56 N 15 10.00 Fair CLR 62.1 43 50% 29.83 1010.6
04 07:56 N 12 10.00 Fair CLR 57.9 42.1 56% 29.83 1010.8
04 06:56 E 9 10.00 Fair CLR 51.1 43 74% 29.83 1010.8
04 05:56 E 7 10.00 Fair CLR 50 42.1 74% 48 29.81 1010.1
04 04:56 NE 9 10.00 Fair CLR 46.9 41 60.1 46.9 80% 43 29.81 1010.1
04 03:56 E 6 10.00 Fair CLR 50 42.1 74% 48 29.81 1009.9
04 02:56 N 3 10.00 Fair CLR 50 41 71% 29.81 1009.9
Date Time (pdt) Wind (mph) Vis. (mi.) Weather Sky Cond. Air Dwpt Max. Min. Relative Humidity Wind Chill (°F) Heat Index (°F) altimeter (in) sea level (mb) 1 hr 3 hr 6 hr
6 hour
Temperature (ºF) Pressure Precipitation (in)